sensor_id;sensor_type;location;lat;lon;timestamp;temperature;humidity
64918;HTU21D;52176;44.858;38.372;2023-04-12T00:02:11;12.88;93.07
64918;HTU21D;52176;44.858;38.372;2023-04-12T00:04:37;12.82;92.94
64918;HTU21D;52176;44.858;38.372;2023-04-12T00:07:03;12.73;92.75
64918;HTU21D;52176;44.858;38.372;2023-04-12T00:09:30;12.65;92.80
64918;HTU21D;52176;44.858;38.372;2023-04-12T00:11:57;12.58;92.82
64918;HTU21D;52176;44.858;38.372;2023-04-12T00:14:23;12.50;92.75
64918;HTU21D;52176;44.858;38.372;2023-04-12T00:16:49;12.43;92.57
64918;HTU21D;52176;44.858;38.372;2023-04-12T00:19:15;12.40;94.35
64918;HTU21D;52176;44.858;38.372;2023-04-12T00:21:44;12.45;93.78
64918;HTU21D;52176;44.858;38.372;2023-04-12T00:24:10;12.48;94.72
64918;HTU21D;52176;44.858;38.372;2023-04-12T00:26:36;12.56;93.95
64918;HTU21D;52176;44.858;38.372;2023-04-12T00:29:02;12.60;94.62
64918;HTU21D;52176;44.858;38.372;2023-04-12T00:31:28;12.69;94.62
64918;HTU21D;52176;44.858;38.372;2023-04-12T00:33:53;12.76;93.77
64918;HTU21D;52176;44.858;38.372;2023-04-12T00:36:19;12.74;93.43
64918;HTU21D;52176;44.858;38.372;2023-04-12T00:38:45;12.74;93.33
64918;HTU21D;52176;44.858;38.372;2023-04-12T00:41:11;12.65;93.14
64918;HTU21D;52176;44.858;38.372;2023-04-12T00:43:38;12.56;92.96
64918;HTU21D;52176;44.858;38.372;2023-04-12T00:46:04;12.48;93.04
64918;HTU21D;52176;44.858;38.372;2023-04-12T00:48:30;12.42;93.09
64918;HTU21D;52176;44.858;38.372;2023-04-12T00:50:56;12.42;94.80
64918;HTU21D;52176;44.858;38.372;2023-04-12T00:53:22;12.53;95.28
64918;HTU21D;52176;44.858;38.372;2023-04-12T00:55:49;12.63;94.40
64918;HTU21D;52176;44.858;38.372;2023-04-12T00:58:15;12.64;95.07
64918;HTU21D;52176;44.858;38.372;2023-04-12T01:00:42;12.75;94.98
64918;HTU21D;52176;44.858;38.372;2023-04-12T01:03:16;12.86;94.63
64918;HTU21D;52176;44.858;38.372;2023-04-12T01:05:49;12.94;94.27
64918;HTU21D;52176;44.858;38.372;2023-04-12T01:13:29;13.14;92.98
64918;HTU21D;52176;44.858;38.372;2023-04-12T01:18:40;13.05;92.72
64918;HTU21D;52176;44.858;38.372;2023-04-12T01:21:13;12.95;93.44
64918;HTU21D;52176;44.858;38.372;2023-04-12T01:23:42;13.00;93.49
64918;HTU21D;52176;44.858;38.372;2023-04-12T01:28:40;13.10;92.96
64918;HTU21D;52176;44.858;38.372;2023-04-12T01:31:06;13.11;92.66
64918;HTU21D;52176;44.858;38.372;2023-04-12T01:33:33;13.14;92.59
64918;HTU21D;52176;44.858;38.372;2023-04-12T01:36:02;13.16;92.50
64918;HTU21D;52176;44.858;38.372;2023-04-12T01:38:29;13.21;91.80
64918;HTU21D;52176;44.858;38.372;2023-04-12T01:40:55;13.07;91.53
64918;HTU21D;52176;44.858;38.372;2023-04-12T01:43:21;12.89;92.87
64918;HTU21D;52176;44.858;38.372;2023-04-12T01:45:47;12.91;93.06
64918;HTU21D;52176;44.858;38.372;2023-04-12T01:48:12;12.95;92.30
64918;HTU21D;52176;44.858;38.372;2023-04-12T01:50:40;12.86;93.07
64918;HTU21D;52176;44.858;38.372;2023-04-12T01:53:12;12.89;93.17
64918;HTU21D;52176;44.858;38.372;2023-04-12T01:55:38;12.93;93.17
64918;HTU21D;52176;44.858;38.372;2023-04-12T01:58:09;12.96;93.03
64918;HTU21D;52176;44.858;38.372;2023-04-12T02:00:36;13.00;92.88
64918;HTU21D;52176;44.858;38.372;2023-04-12T02:03:03;13.02;92.12
64918;HTU21D;52176;44.858;38.372;2023-04-12T02:05:30;12.90;92.89
64918;HTU21D;52176;44.858;38.372;2023-04-12T02:07:56;12.96;92.18
64918;HTU21D;52176;44.858;38.372;2023-04-12T02:10:29;12.89;91.95
64918;HTU21D;52176;44.858;38.372;2023-04-12T02:12:58;12.75;91.82
64918;HTU21D;52176;44.858;38.372;2023-04-12T02:15:25;12.63;93.56
64918;HTU21D;52176;44.858;38.372;2023-04-12T02:17:51;12.66;92.91
64918;HTU21D;52176;44.858;38.372;2023-04-12T02:20:21;12.65;93.91
64918;HTU21D;52176;44.858;38.372;2023-04-12T02:22:48;12.73;93.93
64918;HTU21D;52176;44.858;38.372;2023-04-12T02:25:15;12.81;93.81
64918;HTU21D;52176;44.858;38.372;2023-04-12T02:27:44;12.88;93.66
64918;HTU21D;52176;44.858;38.372;2023-04-12T02:30:12;12.91;93.24
64918;HTU21D;52176;44.858;38.372;2023-04-12T02:32:38;12.95;92.85
64918;HTU21D;52176;44.858;38.372;2023-04-12T02:35:16;12.97;92.56
64918;HTU21D;52176;44.858;38.372;2023-04-12T02:37:46;13.01;91.87
64918;HTU21D;52176;44.858;38.372;2023-04-12T02:40:13;12.91;91.68
64918;HTU21D;52176;44.858;38.372;2023-04-12T02:42:42;12.70;91.51
64918;HTU21D;52176;44.858;38.372;2023-04-12T02:45:10;12.53;91.64
64918;HTU21D;52176;44.858;38.372;2023-04-12T02:47:38;12.36;93.04
64918;HTU21D;52176;44.858;38.372;2023-04-12T02:53:42;12.30;92.13
64918;HTU21D;52176;44.858;38.372;2023-04-12T02:56:33;12.21;93.73
64918;HTU21D;52176;44.858;38.372;2023-04-12T02:59:06;12.30;93.85
64918;HTU21D;52176;44.858;38.372;2023-04-12T03:01:47;12.35;92.91
64918;HTU21D;52176;44.858;38.372;2023-04-12T03:04:25;12.33;92.60
64918;HTU21D;52176;44.858;38.372;2023-04-12T03:06:57;12.26;93.87
64918;HTU21D;52176;44.858;38.372;2023-04-12T03:09:32;12.35;93.11
64918;HTU21D;52176;44.858;38.372;2023-04-12T03:12:00;12.29;92.75
64918;HTU21D;52176;44.858;38.372;2023-04-12T03:14:29;12.22;94.23
64918;HTU21D;52176;44.858;38.372;2023-04-12T03:16:55;12.31;93.53
64918;HTU21D;52176;44.858;38.372;2023-04-12T03:19:21;12.30;94.43
64918;HTU21D;52176;44.858;38.372;2023-04-12T03:21:52;12.43;93.64
64918;HTU21D;52176;44.858;38.372;2023-04-12T03:27:54;12.30;93.00
64918;HTU21D;52176;44.858;38.372;2023-04-12T03:30:26;12.25;92.99
64918;HTU21D;52176;44.858;38.372;2023-04-12T03:32:54;12.22;94.49
64918;HTU21D;52176;44.858;38.372;2023-04-12T03:35:21;12.36;94.85
64918;HTU21D;52176;44.858;38.372;2023-04-12T03:37:49;12.50;94.71
64918;HTU21D;52176;44.858;38.372;2023-04-12T03:40:14;12.63;94.46
64918;HTU21D;52176;44.858;38.372;2023-04-12T03:42:47;12.75;93.59
64918;HTU21D;52176;44.858;38.372;2023-04-12T03:45:14;12.74;94.33
64918;HTU21D;52176;44.858;38.372;2023-04-12T03:47:44;12.84;93.46
64918;HTU21D;52176;44.858;38.372;2023-04-12T03:50:11;12.79;94.11
64918;HTU21D;52176;44.858;38.372;2023-04-12T03:52:38;12.86;94.07
64918;HTU21D;52176;44.858;38.372;2023-04-12T03:55:05;13.00;93.21
64918;HTU21D;52176;44.858;38.372;2023-04-12T03:57:32;12.92;92.85
64918;HTU21D;52176;44.858;38.372;2023-04-12T03:59:59;12.91;92.80
64918;HTU21D;52176;44.858;38.372;2023-04-12T04:02:32;12.80;92.65
64918;HTU21D;52176;44.858;38.372;2023-04-12T04:04:59;12.72;94.23
64918;HTU21D;52176;44.858;38.372;2023-04-12T04:07:28;12.84;94.47
64918;HTU21D;52176;44.858;38.372;2023-04-12T04:09:55;12.96;94.11
64918;HTU21D;52176;44.858;38.372;2023-04-12T04:12:22;13.09;93.95
64918;HTU21D;52176;44.858;38.372;2023-04-12T04:14:52;13.23;93.14
64918;HTU21D;52176;44.858;38.372;2023-04-12T04:17:27;13.25;92.76
64918;HTU21D;52176;44.858;38.372;2023-04-12T04:19:54;13.27;92.59
64918;HTU21D;52176;44.858;38.372;2023-04-12T04:22:20;13.22;93.67
64918;HTU21D;52176;44.858;38.372;2023-04-12T04:24:49;13.34;93.53
64918;HTU21D;52176;44.858;38.372;2023-04-12T04:27:17;13.50;92.82
64918;HTU21D;52176;44.858;38.372;2023-04-12T04:29:46;13.50;92.34
64918;HTU21D;52176;44.858;38.372;2023-04-12T04:32:14;13.52;92.27
64918;HTU21D;52176;44.858;38.372;2023-04-12T04:34:41;13.48;91.98
64918;HTU21D;52176;44.858;38.372;2023-04-12T04:37:16;13.44;91.96
64918;HTU21D;52176;44.858;38.372;2023-04-12T04:39:45;13.40;91.96
64918;HTU21D;52176;44.858;38.372;2023-04-12T04:42:11;13.37;93.58
64918;HTU21D;52176;44.858;38.372;2023-04-12T04:44:39;13.48;92.85
64918;HTU21D;52176;44.858;38.372;2023-04-12T04:47:07;13.54;93.75
64918;HTU21D;52176;44.858;38.372;2023-04-12T04:49:34;13.75;92.93
64918;HTU21D;52176;44.858;38.372;2023-04-12T04:52:17;13.90;92.40
64918;HTU21D;52176;44.858;38.372;2023-04-12T04:54:43;13.97;93.22
64918;HTU21D;52176;44.858;38.372;2023-04-12T04:57:09;14.21;92.91
64918;HTU21D;52176;44.858;38.372;2023-04-12T04:59:37;14.45;91.88
64918;HTU21D;52176;44.858;38.372;2023-04-12T05:02:21;14.63;91.47
64918;HTU21D;52176;44.858;38.372;2023-04-12T05:04:47;14.68;91.18
64918;HTU21D;52176;44.858;38.372;2023-04-12T05:07:17;14.64;90.77
64918;HTU21D;52176;44.858;38.372;2023-04-12T05:09:45;14.54;91.30
64918;HTU21D;52176;44.858;38.372;2023-04-12T05:12:11;14.67;90.97
64918;HTU21D;52176;44.858;38.372;2023-04-12T05:14:40;14.87;90.19
64918;HTU21D;52176;44.858;38.372;2023-04-12T05:17:07;14.91;90.17
64918;HTU21D;52176;44.858;38.372;2023-04-12T05:19:32;15.11;89.31
64918;HTU21D;52176;44.858;38.372;2023-04-12T05:21:58;15.41;88.73
64918;HTU21D;52176;44.858;38.372;2023-04-12T05:24:24;15.49;88.28
64918;HTU21D;52176;44.858;38.372;2023-04-12T05:26:50;15.52;88.30
64918;HTU21D;52176;44.858;38.372;2023-04-12T05:29:17;15.76;86.80
64918;HTU21D;52176;44.858;38.372;2023-04-12T05:31:45;16.06;86.12
64918;HTU21D;52176;44.858;38.372;2023-04-12T05:34:17;16.33;86.32
64918;HTU21D;52176;44.858;38.372;2023-04-12T05:36:50;16.56;83.95
64918;HTU21D;52176;44.858;38.372;2023-04-12T05:39:16;16.81;83.87
64918;HTU21D;52176;44.858;38.372;2023-04-12T05:41:42;16.80;84.39
64918;HTU21D;52176;44.858;38.372;2023-04-12T05:44:07;17.13;83.97
64918;HTU21D;52176;44.858;38.372;2023-04-12T05:46:35;17.13;83.65
64918;HTU21D;52176;44.858;38.372;2023-04-12T05:49:02;16.91;83.63
64918;HTU21D;52176;44.858;38.372;2023-04-12T05:51:28;17.03;83.13
64918;HTU21D;52176;44.858;38.372;2023-04-12T05:53:54;17.34;82.72
64918;HTU21D;52176;44.858;38.372;2023-04-12T05:56:21;17.40;82.31
64918;HTU21D;52176;44.858;38.372;2023-04-12T05:58:47;17.60;81.14
64918;HTU21D;52176;44.858;38.372;2023-04-12T06:01:13;17.95;80.98
64918;HTU21D;52176;44.858;38.372;2023-04-12T06:03:41;18.06;80.94
64918;HTU21D;52176;44.858;38.372;2023-04-12T06:06:11;18.05;81.07
64918;HTU21D;52176;44.858;38.372;2023-04-12T06:08:38;17.98;81.27
64918;HTU21D;52176;44.858;38.372;2023-04-12T06:11:05;17.84;81.52
64918;HTU21D;52176;44.858;38.372;2023-04-12T06:13:33;17.72;81.59
64918;HTU21D;52176;44.858;38.372;2023-04-12T06:15:58;17.48;81.03
64918;HTU21D;52176;44.858;38.372;2023-04-12T06:18:24;17.58;80.68
64918;HTU21D;52176;44.858;38.372;2023-04-12T06:20:51;17.70;80.83
64918;HTU21D;52176;44.858;38.372;2023-04-12T06:23:17;17.89;80.33
64918;HTU21D;52176;44.858;38.372;2023-04-12T06:25:44;17.80;79.17
64918;HTU21D;52176;44.858;38.372;2023-04-12T06:28:11;18.04;79.02
64918;HTU21D;52176;44.858;38.372;2023-04-12T06:30:43;18.14;79.14
64918;HTU21D;52176;44.858;38.372;2023-04-12T06:33:09;18.12;79.15
64918;HTU21D;52176;44.858;38.372;2023-04-12T06:35:35;18.07;79.26
64918;HTU21D;52176;44.858;38.372;2023-04-12T06:38:01;17.94;79.37
64918;HTU21D;52176;44.858;38.372;2023-04-12T06:40:27;17.66;79.20
64918;HTU21D;52176;44.858;38.372;2023-04-12T06:42:53;17.68;79.77
64918;HTU21D;52176;44.858;38.372;2023-04-12T06:45:21;17.88;79.36
64918;HTU21D;52176;44.858;38.372;2023-04-12T06:47:47;17.79;79.42
64918;HTU21D;52176;44.858;38.372;2023-04-12T06:50:13;17.69;79.59
64918;HTU21D;52176;44.858;38.372;2023-04-12T06:52:39;17.61;79.78
64918;HTU21D;52176;44.858;38.372;2023-04-12T06:55:05;17.59;79.97
64918;HTU21D;52176;44.858;38.372;2023-04-12T06:57:31;17.54;80.13
64918;HTU21D;52176;44.858;38.372;2023-04-12T06:59:57;17.43;80.31
64918;HTU21D;52176;44.858;38.372;2023-04-12T07:02:23;17.22;82.07
64918;HTU21D;52176;44.858;38.372;2023-04-12T07:04:52;17.33;81.53
64918;HTU21D;52176;44.858;38.372;2023-04-12T07:07:21;17.28;81.31
64918;HTU21D;52176;44.858;38.372;2023-04-12T07:09:47;17.40;80.78
64918;HTU21D;52176;44.858;38.372;2023-04-12T07:12:13;17.51;80.67
64918;HTU21D;52176;44.858;38.372;2023-04-12T07:14:38;17.61;80.19
64918;HTU21D;52176;44.858;38.372;2023-04-12T07:17:04;17.51;80.04
64918;HTU21D;52176;44.858;38.372;2023-04-12T07:19:30;17.63;79.74
64918;HTU21D;52176;44.858;38.372;2023-04-12T07:21:56;17.52;79.80
64918;HTU21D;52176;44.858;38.372;2023-04-12T07:24:22;17.31;80.72
64918;HTU21D;52176;44.858;38.372;2023-04-12T07:26:48;17.46;80.22
64918;HTU21D;52176;44.858;38.372;2023-04-12T07:29:14;17.38;80.21
64918;HTU21D;52176;44.858;38.372;2023-04-12T07:31:41;17.20;81.51
64918;HTU21D;52176;44.858;38.372;2023-04-12T07:34:07;17.31;81.30
64918;HTU21D;52176;44.858;38.372;2023-04-12T07:36:33;17.45;80.09
64918;HTU21D;52176;44.858;38.372;2023-04-12T07:38:59;17.62;79.93
64918;HTU21D;52176;44.858;38.372;2023-04-12T07:41:25;17.61;80.06
64918;HTU21D;52176;44.858;38.372;2023-04-12T07:43:50;17.76;79.46
64918;HTU21D;52176;44.858;38.372;2023-04-12T07:46:16;17.93;78.85
64918;HTU21D;52176;44.858;38.372;2023-04-12T07:48:42;17.85;77.72
64918;HTU21D;52176;44.858;38.372;2023-04-12T07:51:08;18.02;77.85
64918;HTU21D;52176;44.858;38.372;2023-04-12T07:53:34;17.98;78.29
64918;HTU21D;52176;44.858;38.372;2023-04-12T07:56:00;18.09;78.26
64918;HTU21D;52176;44.858;38.372;2023-04-12T07:58:28;18.21;77.91
64918;HTU21D;52176;44.858;38.372;2023-04-12T08:00:54;18.15;77.74
64918;HTU21D;52176;44.858;38.372;2023-04-12T08:03:21;17.91;78.24
64918;HTU21D;52176;44.858;38.372;2023-04-12T08:05:47;18.04;77.99
64918;HTU21D;52176;44.858;38.372;2023-04-12T08:08:18;18.02;77.96
64918;HTU21D;52176;44.858;38.372;2023-04-12T08:10:44;17.87;78.08
64918;HTU21D;52176;44.858;38.372;2023-04-12T08:13:10;17.61;79.32
64918;HTU21D;52176;44.858;38.372;2023-04-12T08:15:36;17.68;78.96
64918;HTU21D;52176;44.858;38.372;2023-04-12T08:18:02;17.82;78.59
64918;HTU21D;52176;44.858;38.372;2023-04-12T08:20:28;17.91;78.40
64918;HTU21D;52176;44.858;38.372;2023-04-12T08:22:54;17.80;78.41
64918;HTU21D;52176;44.858;38.372;2023-04-12T08:25:20;17.69;78.65
64918;HTU21D;52176;44.858;38.372;2023-04-12T08:27:47;17.48;79.47
64918;HTU21D;52176;44.858;38.372;2023-04-12T08:30:13;17.59;78.97
64918;HTU21D;52176;44.858;38.372;2023-04-12T08:32:39;17.46;78.96
64918;HTU21D;52176;44.858;38.372;2023-04-12T08:35:06;17.25;80.38
64918;HTU21D;52176;44.858;38.372;2023-04-12T08:37:32;17.31;80.79
64918;HTU21D;52176;44.858;38.372;2023-04-12T08:40:01;17.34;80.12
64918;HTU21D;52176;44.858;38.372;2023-04-12T08:42:29;17.37;79.85
64918;HTU21D;52176;44.858;38.372;2023-04-12T08:44:56;17.39;79.49
64918;HTU21D;52176;44.858;38.372;2023-04-12T08:47:21;17.33;79.40
64918;HTU21D;52176;44.858;38.372;2023-04-12T08:49:47;17.18;79.53
64918;HTU21D;52176;44.858;38.372;2023-04-12T08:52:13;17.10;79.62
64918;HTU21D;52176;44.858;38.372;2023-04-12T08:54:40;17.02;79.72
64918;HTU21D;52176;44.858;38.372;2023-04-12T08:57:06;16.88;79.96
64918;HTU21D;52176;44.858;38.372;2023-04-12T08:59:34;16.80;80.23
64918;HTU21D;52176;44.858;38.372;2023-04-12T09:02:01;16.70;80.40
64918;HTU21D;52176;44.858;38.372;2023-04-12T09:04:26;16.62;80.52
64918;HTU21D;52176;44.858;38.372;2023-04-12T09:06:52;16.51;80.70
64918;HTU21D;52176;44.858;38.372;2023-04-12T09:09:18;16.37;82.76
64918;HTU21D;52176;44.858;38.372;2023-04-12T09:11:44;16.44;83.29
64918;HTU21D;52176;44.858;38.372;2023-04-12T09:14:19;16.56;83.16
64918;HTU21D;52176;44.858;38.372;2023-04-12T09:16:45;16.70;82.13
64918;HTU21D;52176;44.858;38.372;2023-04-12T09:19:11;16.69;81.73
64918;HTU21D;52176;44.858;38.372;2023-04-12T09:21:37;16.63;81.54
64918;HTU21D;52176;44.858;38.372;2023-04-12T09:24:15;16.51;81.43
64918;HTU21D;52176;44.858;38.372;2023-04-12T09:26:41;16.39;81.49
64918;HTU21D;52176;44.858;38.372;2023-04-12T09:29:19;16.30;81.60
64918;HTU21D;52176;44.858;38.372;2023-04-12T09:31:55;16.16;81.69
64918;HTU21D;52176;44.858;38.372;2023-04-12T09:34:21;16.00;83.68
64918;HTU21D;52176;44.858;38.372;2023-04-12T09:36:47;16.11;82.96
64918;HTU21D;52176;44.858;38.372;2023-04-12T09:39:13;16.13;82.65
64918;HTU21D;52176;44.858;38.372;2023-04-12T09:41:39;16.07;83.74
64918;HTU21D;52176;44.858;38.372;2023-04-12T09:44:05;16.15;83.05
64918;HTU21D;52176;44.858;38.372;2023-04-12T09:46:31;16.10;83.91
64918;HTU21D;52176;44.858;38.372;2023-04-12T09:48:57;16.17;84.00
64918;HTU21D;52176;44.858;38.372;2023-04-12T09:51:28;16.29;84.29
64918;HTU21D;52176;44.858;38.372;2023-04-12T09:53:58;16.40;83.48
64918;HTU21D;52176;44.858;38.372;2023-04-12T09:56:27;16.37;83.19
64918;HTU21D;52176;44.858;38.372;2023-04-12T09:58:53;16.31;83.07
64918;HTU21D;52176;44.858;38.372;2023-04-12T10:01:20;16.22;83.09
64918;HTU21D;52176;44.858;38.372;2023-04-12T10:03:48;16.17;83.01
64918;HTU21D;52176;44.858;38.372;2023-04-12T10:06:14;16.08;82.94
64918;HTU21D;52176;44.858;38.372;2023-04-12T10:08:40;16.05;82.95
64918;HTU21D;52176;44.858;38.372;2023-04-12T10:11:06;16.02;83.06
64918;HTU21D;52176;44.858;38.372;2023-04-12T10:13:34;16.06;85.95
64918;HTU21D;52176;44.858;38.372;2023-04-12T10:16:00;16.25;86.18
64918;HTU21D;52176;44.858;38.372;2023-04-12T10:18:29;16.48;84.99
64918;HTU21D;52176;44.858;38.372;2023-04-12T10:20:56;16.55;84.29
64918;HTU21D;52176;44.858;38.372;2023-04-12T10:23:22;16.50;83.79
64918;HTU21D;52176;44.858;38.372;2023-04-12T10:25:48;16.49;83.71
64918;HTU21D;52176;44.858;38.372;2023-04-12T10:28:15;16.45;84.41
64918;HTU21D;52176;44.858;38.372;2023-04-12T10:30:41;16.61;83.78
64918;HTU21D;52176;44.858;38.372;2023-04-12T10:33:14;16.63;83.94
64918;HTU21D;52176;44.858;38.372;2023-04-12T10:35:48;16.82;83.25
64918;HTU21D;52176;44.858;38.372;2023-04-12T10:38:14;16.85;82.84
64918;HTU21D;52176;44.858;38.372;2023-04-12T10:43:25;17.28;82.75
64918;HTU21D;52176;44.858;38.372;2023-04-12T10:45:54;17.53;81.80
64918;HTU21D;52176;44.858;38.372;2023-04-12T10:48:33;17.82;81.02
64918;HTU21D;52176;44.858;38.372;2023-04-12T10:51:18;18.00;79.44
64918;HTU21D;52176;44.858;38.372;2023-04-12T10:53:52;18.13;78.32
64918;HTU21D;52176;44.858;38.372;2023-04-12T10:59:02;18.10;79.67
64918;HTU21D;52176;44.858;38.372;2023-04-12T11:01:32;18.06;79.69
64918;HTU21D;52176;44.858;38.372;2023-04-12T11:04:17;18.02;79.56
64918;HTU21D;52176;44.858;38.372;2023-04-12T11:07:06;18.02;79.26
64918;HTU21D;52176;44.858;38.372;2023-04-12T11:09:55;17.96;79.29
64918;HTU21D;52176;44.858;38.372;2023-04-12T11:12:27;17.83;79.55
64918;HTU21D;52176;44.858;38.372;2023-04-12T11:14:55;17.73;79.86
64918;HTU21D;52176;44.858;38.372;2023-04-12T11:17:25;17.64;80.05
64918;HTU21D;52176;44.858;38.372;2023-04-12T11:19:58;17.41;81.65
64918;HTU21D;52176;44.858;38.372;2023-04-12T11:22:25;17.51;80.90
64918;HTU21D;52176;44.858;38.372;2023-04-12T11:24:53;17.37;80.75
64918;HTU21D;52176;44.858;38.372;2023-04-12T11:27:20;17.25;80.98
64918;HTU21D;52176;44.858;38.372;2023-04-12T11:30:04;17.10;82.88
64918;HTU21D;52176;44.858;38.372;2023-04-12T11:32:33;17.30;82.93
64918;HTU21D;52176;44.858;38.372;2023-04-12T11:34:59;17.46;82.07
64918;HTU21D;52176;44.858;38.372;2023-04-12T11:37:30;17.58;81.59
64918;HTU21D;52176;44.858;38.372;2023-04-12T11:39:56;17.62;81.36
64918;HTU21D;52176;44.858;38.372;2023-04-12T11:42:23;17.59;81.98
64918;HTU21D;52176;44.858;38.372;2023-04-12T11:44:49;17.87;81.27
64918;HTU21D;52176;44.858;38.372;2023-04-12T11:47:16;18.04;80.69
64918;HTU21D;52176;44.858;38.372;2023-04-12T11:49:46;18.03;80.41
64918;HTU21D;52176;44.858;38.372;2023-04-12T11:52:13;18.33;79.93
64918;HTU21D;52176;44.858;38.372;2023-04-12T11:54:42;18.48;79.53
64918;HTU21D;52176;44.858;38.372;2023-04-12T11:57:10;18.59;79.29
64918;HTU21D;52176;44.858;38.372;2023-04-12T11:59:36;19.00;78.43
64918;HTU21D;52176;44.858;38.372;2023-04-12T12:02:01;19.27;78.01
64918;HTU21D;52176;44.858;38.372;2023-04-12T12:04:29;19.48;76.60
64918;HTU21D;52176;44.858;38.372;2023-04-12T12:06:58;19.92;75.20
64918;HTU21D;52176;44.858;38.372;2023-04-12T12:09:24;20.44;74.70
64918;HTU21D;52176;44.858;38.372;2023-04-12T12:11:52;20.56;74.57
64918;HTU21D;52176;44.858;38.372;2023-04-12T12:14:21;20.61;74.86
64918;HTU21D;52176;44.858;38.372;2023-04-12T12:16:51;20.60;74.65
64918;HTU21D;52176;44.858;38.372;2023-04-12T12:19:39;20.63;74.25
64918;HTU21D;52176;44.858;38.372;2023-04-12T12:22:25;20.54;74.28
64918;HTU21D;52176;44.858;38.372;2023-04-12T12:24:57;20.34;74.51
64918;HTU21D;52176;44.858;38.372;2023-04-12T12:27:23;20.19;74.73
64918;HTU21D;52176;44.858;38.372;2023-04-12T12:29:53;19.90;74.90
64918;HTU21D;52176;44.858;38.372;2023-04-12T12:32:19;19.68;75.21
64918;HTU21D;52176;44.858;38.372;2023-04-12T12:34:54;19.40;75.45
64918;HTU21D;52176;44.858;38.372;2023-04-12T12:37:23;19.08;75.95
64918;HTU21D;52176;44.858;38.372;2023-04-12T12:42:48;18.48;77.02
64918;HTU21D;52176;44.858;38.372;2023-04-12T12:45:15;18.27;77.11
64918;HTU21D;52176;44.858;38.372;2023-04-12T12:47:49;17.98;77.64
64918;HTU21D;52176;44.858;38.372;2023-04-12T12:50:16;17.79;77.92
64918;HTU21D;52176;44.858;38.372;2023-04-12T12:52:43;17.55;78.25
64918;HTU21D;52176;44.858;38.372;2023-04-12T12:55:09;17.30;79.30
64918;HTU21D;52176;44.858;38.372;2023-04-12T12:57:35;17.32;79.21
64918;HTU21D;52176;44.858;38.372;2023-04-12T13:00:01;17.38;78.87
64918;HTU21D;52176;44.858;38.372;2023-04-12T13:02:29;17.25;80.33
64918;HTU21D;52176;44.858;38.372;2023-04-12T13:04:55;17.32;79.69
64918;HTU21D;52176;44.858;38.372;2023-04-12T13:07:21;17.25;79.55
64918;HTU21D;52176;44.858;38.372;2023-04-12T13:09:47;17.20;79.35
64918;HTU21D;52176;44.858;38.372;2023-04-12T13:12:14;17.03;79.53
64918;HTU21D;52176;44.858;38.372;2023-04-12T13:14:40;16.84;81.33
64918;HTU21D;52176;44.858;38.372;2023-04-12T13:17:06;16.87;81.04
64918;HTU21D;52176;44.858;38.372;2023-04-12T13:19:32;17.01;80.29
64918;HTU21D;52176;44.858;38.372;2023-04-12T13:21:58;16.98;80.09
64918;HTU21D;52176;44.858;38.372;2023-04-12T13:24:24;16.94;80.02
64918;HTU21D;52176;44.858;38.372;2023-04-12T13:26:50;16.90;80.01
64918;HTU21D;52176;44.858;38.372;2023-04-12T13:29:16;16.80;81.04
64918;HTU21D;52176;44.858;38.372;2023-04-12T13:31:42;16.89;80.57
64918;HTU21D;52176;44.858;38.372;2023-04-12T13:34:08;17.01;79.95
64918;HTU21D;52176;44.858;38.372;2023-04-12T13:36:33;17.09;79.42
64918;HTU21D;52176;44.858;38.372;2023-04-12T13:38:59;17.00;79.82
64918;HTU21D;52176;44.858;38.372;2023-04-12T13:41:25;17.02;79.94
64918;HTU21D;52176;44.858;38.372;2023-04-12T13:43:51;16.99;78.92
64918;HTU21D;52176;44.858;38.372;2023-04-12T13:46:17;16.90;78.50
64918;HTU21D;52176;44.858;38.372;2023-04-12T13:48:42;16.75;78.39
64918;HTU21D;52176;44.858;38.372;2023-04-12T13:51:08;16.61;78.69
64918;HTU21D;52176;44.858;38.372;2023-04-12T13:53:34;16.54;78.51
64918;HTU21D;52176;44.858;38.372;2023-04-12T13:56:01;16.37;78.68
64918;HTU21D;52176;44.858;38.372;2023-04-12T13:58:27;16.18;78.95
64918;HTU21D;52176;44.858;38.372;2023-04-12T14:00:52;16.01;79.28
64918;HTU21D;52176;44.858;38.372;2023-04-12T14:03:20;15.78;81.37
64918;HTU21D;52176;44.858;38.372;2023-04-12T14:05:46;15.81;80.68
64918;HTU21D;52176;44.858;38.372;2023-04-12T14:08:12;15.68;82.20
64918;HTU21D;52176;44.858;38.372;2023-04-12T14:10:38;15.68;82.06
64918;HTU21D;52176;44.858;38.372;2023-04-12T14:13:04;15.67;81.26
64918;HTU21D;52176;44.858;38.372;2023-04-12T14:15:30;15.46;82.50
64918;HTU21D;52176;44.858;38.372;2023-04-12T14:17:56;15.42;82.49
64918;HTU21D;52176;44.858;38.372;2023-04-12T14:20:22;15.38;82.33
64918;HTU21D;52176;44.858;38.372;2023-04-12T14:22:48;15.32;82.50
64918;HTU21D;52176;44.858;38.372;2023-04-12T14:25:14;15.27;81.84
64918;HTU21D;52176;44.858;38.372;2023-04-12T14:27:40;15.12;81.68
64918;HTU21D;52176;44.858;38.372;2023-04-12T14:30:06;14.82;83.52
64918;HTU21D;52176;44.858;38.372;2023-04-12T14:32:32;14.85;82.58
64918;HTU21D;52176;44.858;38.372;2023-04-12T14:34:58;14.68;82.42
64918;HTU21D;52176;44.858;38.372;2023-04-12T14:37:24;14.50;82.54
64918;HTU21D;52176;44.858;38.372;2023-04-12T14:39:52;14.28;84.94
64918;HTU21D;52176;44.858;38.372;2023-04-12T14:42:17;14.32;84.00
64918;HTU21D;52176;44.858;38.372;2023-04-12T14:44:43;14.23;83.65
64918;HTU21D;52176;44.858;38.372;2023-04-12T14:47:09;14.05;85.00
64918;HTU21D;52176;44.858;38.372;2023-04-12T14:49:35;14.05;84.80
64918;HTU21D;52176;44.858;38.372;2023-04-12T14:52:01;14.06;83.94
64918;HTU21D;52176;44.858;38.372;2023-04-12T14:54:27;14.00;83.65
64918;HTU21D;52176;44.858;38.372;2023-04-12T15:00:28;13.78;83.63
64918;HTU21D;52176;44.858;38.372;2023-04-12T15:02:54;13.61;83.62
64918;HTU21D;52176;44.858;38.372;2023-04-12T15:05:20;13.47;83.82
64918;HTU21D;52176;44.858;38.372;2023-04-12T15:07:46;13.35;84.04
64918;HTU21D;52176;44.858;38.372;2023-04-12T15:10:12;13.29;84.13
64918;HTU21D;52176;44.858;38.372;2023-04-12T15:12:38;13.18;86.84
64918;HTU21D;52176;44.858;38.372;2023-04-12T15:15:04;13.27;87.57
64918;HTU21D;52176;44.858;38.372;2023-04-12T15:17:31;13.38;87.44
64918;HTU21D;52176;44.858;38.372;2023-04-12T15:19:58;13.44;87.28
64918;HTU21D;52176;44.858;38.372;2023-04-12T15:22:24;13.45;87.04
64918;HTU21D;52176;44.858;38.372;2023-04-12T15:24:51;13.44;86.83
64918;HTU21D;52176;44.858;38.372;2023-04-12T15:27:17;13.40;86.38
64918;HTU21D;52176;44.858;38.372;2023-04-12T15:29:43;13.39;85.52
64918;HTU21D;52176;44.858;38.372;2023-04-12T15:32:09;13.18;86.35
64918;HTU21D;52176;44.858;38.372;2023-04-12T15:34:34;13.15;86.47
64918;HTU21D;52176;44.858;38.372;2023-04-12T15:37:00;13.12;86.68